createdAt,value
2018-05-25T00:00:30.686Z,101263.13
2018-05-25T00:02:58.117Z,101263.05
2018-05-25T00:05:25.513Z,101259.83
2018-05-25T00:07:52.940Z,101262.35
2018-05-25T00:10:20.337Z,101253.65
2018-05-25T00:12:47.757Z,101258.22
2018-05-25T00:15:15.197Z,101264.55
2018-05-25T00:17:42.589Z,101261.28
2018-05-25T00:20:09.988Z,101260.78
2018-05-25T00:22:37.461Z,101256.18
2018-05-25T00:25:04.865Z,101256.43
2018-05-25T00:27:32.258Z,101259.78
2018-05-25T00:29:59.665Z,101258.35
2018-05-25T00:32:27.066Z,101262.20
2018-05-25T00:34:54.472Z,101266.30
2018-05-25T00:37:21.872Z,101266.14
2018-05-25T00:39:49.345Z,101272.58
2018-05-25T00:42:16.745Z,101271.46
2018-05-25T00:44:44.164Z,101270.41
2018-05-25T00:47:11.629Z,101267.06
2018-05-25T00:49:39.104Z,101266.14
2018-05-25T00:52:06.565Z,101261.87
2018-05-25T00:54:34.057Z,101267.89
2018-05-25T00:57:01.509Z,101264.63
2018-05-25T00:59:29.004Z,101266.19
2018-05-25T01:01:56.392Z,101266.44
2018-05-25T01:04:23.796Z,101273.05
2018-05-25T01:06:51.193Z,101272.13
2018-05-25T01:09:18.604Z,101270.65
2018-05-25T01:11:46.001Z,101271.14
2018-05-25T01:14:13.492Z,101272.73
2018-05-25T01:16:40.909Z,101270.05
2018-05-25T01:19:08.341Z,101260.42
2018-05-25T01:21:35.792Z,101259.41
2018-05-25T01:24:03.197Z,101264.27
2018-05-25T01:26:30.601Z,101264.36
2018-05-25T01:28:58.109Z,101259.16
2018-05-25T01:31:25.573Z,101260.17
2018-05-25T01:33:52.976Z,101256.73
2018-05-25T01:36:20.371Z,101252.47
2018-05-25T01:38:47.837Z,101248.18
2018-05-25T01:41:15.245Z,101249.80
2018-05-25T01:43:42.716Z,101251.57
2018-05-25T01:46:10.197Z,101249.06
2018-05-25T01:48:37.625Z,101241.27
2018-05-25T01:51:05.021Z,101244.63
2018-05-25T01:53:32.425Z,101242.11
2018-05-25T01:55:59.852Z,101246.81
2018-05-25T01:58:27.332Z,101245.84
2018-05-25T02:00:54.806Z,101245.25
2018-05-25T02:03:22.224Z,101244.83
2018-05-25T02:05:49.728Z,101243.75
2018-05-25T02:08:17.201Z,101241.66
2018-05-25T02:10:44.684Z,101240.48
2018-05-25T02:13:12.245Z,101238.39
2018-05-25T02:15:39.647Z,101243.67
2018-05-25T02:18:07.061Z,101239.94
2018-05-25T02:20:34.461Z,101241.44
2018-05-25T02:23:01.914Z,101244.79
2018-05-25T02:25:29.387Z,101242.70
2018-05-25T02:27:56.853Z,101244.82
2018-05-25T02:30:24.326Z,101242.22
2018-05-25T02:32:51.729Z,101241.39
2018-05-25T02:35:19.164Z,101243.73
2018-05-25T02:37:46.559Z,101237.13
2018-05-25T02:40:13.969Z,101238.38
2018-05-25T02:42:41.365Z,101241.89
2018-05-25T02:45:08.765Z,101241.22
2018-05-25T02:47:36.193Z,101238.54
2018-05-25T02:50:03.665Z,101236.20
2018-05-25T02:52:31.157Z,101236.87
2018-05-25T02:54:58.548Z,101236.20
2018-05-25T02:57:25.981Z,101235.36
2018-05-25T02:59:53.379Z,101232.52
2018-05-25T03:02:20.781Z,101237.95
2018-05-25T03:04:48.277Z,101238.03
2018-05-25T03:07:15.752Z,101244.39
2018-05-25T03:09:43.221Z,101241.22
2018-05-25T03:12:10.813Z,101244.73
2018-05-25T03:14:38.221Z,101248.69
2018-05-25T03:17:05.689Z,101253.53
2018-05-25T03:19:33.113Z,101250.43
2018-05-25T03:22:00.560Z,101254.45
2018-05-25T03:24:27.965Z,101252.11
2018-05-25T03:26:55.372Z,101253.36
2018-05-25T03:29:22.877Z,101251.69
2018-05-25T03:31:50.287Z,101253.27
2018-05-25T03:34:17.709Z,101250.37
2018-05-25T03:36:45.105Z,101255.11
2018-05-25T03:39:12.509Z,101260.80
2018-05-25T03:41:40.018Z,101264.76
2018-05-25T03:44:07.429Z,101269.60
2018-05-25T03:46:34.831Z,101264.67
2018-05-25T03:49:02.254Z,101261.24
2018-05-25T03:51:29.684Z,101261.30
2018-05-25T03:53:57.152Z,101264.06
2018-05-25T03:56:24.560Z,101260.14
2018-05-25T03:59:03.968Z,101263.66
2018-05-25T04:01:43.341Z,101262.81
2018-05-25T04:04:10.801Z,101260.98
2018-05-25T04:06:38.221Z,101268.42
2018-05-25T04:09:05.617Z,101267.75
2018-05-25T04:11:33.025Z,101274.37
2018-05-25T04:14:00.419Z,101272.62
2018-05-25T04:16:27.839Z,101273.18
2018-05-25T04:18:55.339Z,101269.34
2018-05-25T04:21:22.733Z,101273.19
2018-05-25T04:23:50.136Z,101276.63
2018-05-25T04:26:17.578Z,101277.13
2018-05-25T04:28:44.936Z,101282.56
2018-05-25T04:31:12.341Z,101281.97
2018-05-25T04:33:39.813Z,101281.97
2018-05-25T04:36:07.281Z,101282.41
2018-05-25T04:38:34.744Z,101278.86
2018-05-25T04:41:02.226Z,101285.14
2018-05-25T04:43:29.621Z,101282.22
2018-05-25T04:45:57.025Z,101288.58
2018-05-25T04:48:24.481Z,101291.51
2018-05-25T04:50:51.845Z,101296.36
2018-05-25T04:53:19.353Z,101289.25
2018-05-25T04:55:46.777Z,101291.93
2018-05-25T04:58:14.169Z,101296.70
2018-05-25T05:00:41.585Z,101300.30
2018-05-25T05:03:08.988Z,101302.05
2018-05-25T05:05:36.518Z,101302.73
2018-05-25T05:08:03.969Z,101303.23
2018-05-25T05:10:31.385Z,101304.48
2018-05-25T05:12:58.806Z,101304.87
2018-05-25T05:15:26.211Z,101296.17
2018-05-25T05:17:53.613Z,101298.60
2018-05-25T05:20:21.157Z,101293.41
2018-05-25T05:22:48.565Z,101293.00
2018-05-25T05:25:15.968Z,101304.80
2018-05-25T05:27:43.362Z,101297.19
2018-05-25T05:30:10.805Z,101299.78
2018-05-25T05:32:38.259Z,101294.56
2018-05-25T05:35:05.713Z,101298.83
2018-05-25T05:37:33.198Z,101301.26
2018-05-25T05:40:00.627Z,101296.98
2018-05-25T05:42:28.032Z,101299.00
2018-05-25T05:44:55.512Z,101293.47
2018-05-25T05:47:22.917Z,101288.78
2018-05-25T05:49:50.334Z,101294.89
2018-05-25T05:52:17.805Z,101285.52
2018-05-25T05:54:45.220Z,101287.78
2018-05-25T05:57:12.617Z,101292.44
2018-05-25T05:59:40.022Z,101293.19
2018-05-25T06:02:07.413Z,101299.97
2018-05-25T06:04:34.923Z,101300.48
2018-05-25T06:07:02.318Z,101314.13
2018-05-25T06:09:29.789Z,101315.46
2018-05-25T06:11:57.189Z,101317.05
2018-05-25T06:14:24.845Z,101319.06
2018-05-25T06:16:52.310Z,101317.13
2018-05-25T06:19:19.828Z,101317.13
2018-05-25T06:21:47.265Z,101319.90
2018-05-25T06:24:14.673Z,101325.59
2018-05-25T06:26:42.172Z,101323.83
2018-05-25T06:29:09.649Z,101326.43
2018-05-25T06:31:37.416Z,101326.52
2018-05-25T06:34:04.818Z,101329.61
2018-05-25T06:36:32.204Z,101331.12
2018-05-25T06:38:59.610Z,101332.26
2018-05-25T06:41:27.103Z,101325.81
2018-05-25T06:43:54.568Z,101335.72
2018-05-25T06:46:22.029Z,101334.13
2018-05-25T06:48:49.433Z,101339.23
2018-05-25T06:51:16.836Z,101342.64
2018-05-25T06:53:44.229Z,101325.05
2018-05-25T06:56:11.628Z,101331.66
2018-05-25T06:58:39.053Z,101332.16
2018-05-25T07:01:06.541Z,101330.98
2018-05-25T07:03:34.109Z,101339.03
2018-05-25T07:06:01.574Z,101336.35
2018-05-25T07:08:29.062Z,101340.29
2018-05-25T07:10:56.528Z,101344.31
2018-05-25T07:13:23.997Z,101349.67
2018-05-25T07:15:51.417Z,101342.47
2018-05-25T07:18:18.813Z,101339.28
2018-05-25T07:20:46.561Z,101333.50
2018-05-25T07:23:14.069Z,101346.41
2018-05-25T07:25:41.547Z,101349.84
2018-05-25T07:28:09.013Z,101358.72
2018-05-25T07:30:36.505Z,101354.36
2018-05-25T07:33:03.981Z,101349.08
2018-05-25T07:35:31.377Z,101355.45
2018-05-25T07:37:58.777Z,101361.56
2018-05-25T07:40:26.253Z,101365.00
2018-05-25T07:42:53.644Z,101373.88
2018-05-25T07:45:21.069Z,101372.55
2018-05-25T07:47:48.465Z,101378.66
2018-05-25T07:50:16.185Z,101370.61
2018-05-25T07:52:43.757Z,101370.19
2018-05-25T07:55:11.201Z,101374.52
2018-05-25T07:57:38.646Z,101369.66
2018-05-25T08:00:06.114Z,101369.31
2018-05-25T08:02:33.640Z,101376.72
2018-05-25T08:05:01.039Z,101376.95
2018-05-25T08:07:28.456Z,101375.14
2018-05-25T08:09:55.857Z,101371.61
2018-05-25T08:12:33.190Z,101371.14
2018-05-25T08:15:00.649Z,101371.47
2018-05-25T08:17:28.057Z,101375.00
2018-05-25T08:19:55.489Z,101374.71
2018-05-25T08:22:22.890Z,101369.77
2018-05-25T08:24:50.314Z,101371.27
2018-05-25T08:27:17.793Z,101375.03
2018-05-25T08:29:45.268Z,101370.92
2018-05-25T08:32:12.665Z,101370.08
2018-05-25T08:34:40.108Z,101363.97
2018-05-25T08:37:07.521Z,101362.27
2018-05-25T08:39:34.952Z,101359.82
2018-05-25T08:42:02.349Z,101365.30
2018-05-25T08:44:29.776Z,101358.06
2018-05-25T08:46:57.240Z,101367.95
2018-05-25T08:49:24.796Z,101366.84
2018-05-25T08:51:52.214Z,101367.80
2018-05-25T08:54:19.697Z,101365.52
2018-05-25T08:56:47.105Z,101364.48
2018-05-25T08:59:14.509Z,101362.70
2018-05-25T09:01:41.966Z,101369.19
2018-05-25T09:04:09.445Z,101362.27
2018-05-25T09:06:36.877Z,101364.30
2018-05-25T09:09:04.384Z,101363.27
2018-05-25T09:11:31.804Z,101359.54
2018-05-25T09:13:59.209Z,101354.47
2018-05-25T09:16:26.610Z,101362.74
2018-05-25T09:18:54.009Z,101363.04
2018-05-25T09:21:21.400Z,101366.41
2018-05-25T09:23:48.808Z,101358.32
2018-05-25T09:26:16.210Z,101358.62
2018-05-25T09:28:43.604Z,101357.23
2018-05-25T09:31:11.092Z,101355.28
2018-05-25T09:33:38.493Z,101355.93
2018-05-25T09:36:05.929Z,101361.09
2018-05-25T09:38:33.352Z,101354.47
2018-05-25T09:41:00.870Z,101352.83
2018-05-25T09:43:28.303Z,101351.11
2018-05-25T09:45:55.698Z,101348.33
2018-05-25T09:48:23.112Z,101344.58
2018-05-25T09:50:50.517Z,101347.47
2018-05-25T09:53:17.999Z,101349.42
2018-05-25T09:55:45.400Z,101349.54
2018-05-25T09:58:12.821Z,101349.17
2018-05-25T10:00:40.237Z,101348.95
2018-05-25T10:03:07.671Z,101347.92
2018-05-25T10:05:35.141Z,101355.97
2018-05-25T10:08:02.644Z,101353.13
2018-05-25T10:10:30.045Z,101355.22
2018-05-25T10:12:57.456Z,101341.45
2018-05-25T10:15:24.855Z,101347.30
2018-05-25T10:17:52.301Z,101344.78
2018-05-25T10:20:19.746Z,101346.11
2018-05-25T10:22:47.226Z,101341.82
2018-05-25T10:25:14.688Z,101342.05
2018-05-25T10:27:42.093Z,101339.63
2018-05-25T10:30:09.521Z,101334.20
2018-05-25T10:32:37.008Z,101331.75
2018-05-25T10:35:04.482Z,101329.20
2018-05-25T10:37:31.841Z,101329.34
2018-05-25T10:39:59.264Z,101325.73
2018-05-25T10:42:26.657Z,101321.98
2018-05-25T10:44:54.133Z,101327.29
2018-05-25T10:47:21.564Z,101322.75
2018-05-25T10:49:48.957Z,101321.13
2018-05-25T10:52:16.449Z,101318.37
2018-05-25T10:54:43.916Z,101317.75
2018-05-25T10:57:11.364Z,101315.02
2018-05-25T10:59:38.773Z,101313.58
2018-05-25T11:02:06.222Z,101315.65
2018-05-25T11:04:33.616Z,101311.84
2018-05-25T11:07:01.044Z,101311.28
2018-05-25T11:09:28.460Z,101308.25
2018-05-25T11:11:55.878Z,101313.03
2018-05-25T11:14:23.356Z,101315.91
2018-05-25T11:16:50.809Z,101307.44
2018-05-25T11:19:18.293Z,101309.89
2018-05-25T11:21:45.775Z,101304.84
2018-05-25T11:24:13.164Z,101303.73
2018-05-25T11:26:40.565Z,101309.47
2018-05-25T11:29:08.073Z,101302.16
2018-05-25T11:31:35.548Z,101313.75
2018-05-25T11:34:02.957Z,101308.75
2018-05-25T11:36:30.375Z,101305.27
2018-05-25T11:38:57.781Z,101306.73
2018-05-25T11:41:25.181Z,101306.58
2018-05-25T11:43:53.521Z,101303.75
2018-05-25T11:46:20.973Z,101293.95
2018-05-25T11:48:48.449Z,101291.21
2018-05-25T11:51:15.861Z,101286.09
2018-05-25T11:53:43.293Z,101285.21
2018-05-25T11:56:10.713Z,101277.36
2018-05-25T11:58:38.112Z,101284.42
2018-05-25T12:01:05.509Z,101285.27
2018-05-25T12:03:32.917Z,101282.88
2018-05-25T12:06:00.520Z,101283.59
2018-05-25T12:08:27.993Z,101287.34
2018-05-25T12:10:55.459Z,101290.45
2018-05-25T12:13:22.943Z,101290.38
2018-05-25T12:15:50.633Z,101283.48
2018-05-25T12:18:18.037Z,101290.87
2018-05-25T12:20:45.903Z,101284.41
2018-05-25T12:23:13.321Z,101285.78
2018-05-25T12:25:40.801Z,101278.52
2018-05-25T12:28:08.226Z,101278.03
2018-05-25T12:30:35.605Z,101278.44
2018-05-25T12:33:03.009Z,101280.59
2018-05-25T12:35:30.423Z,101271.93
2018-05-25T12:37:57.815Z,101273.67
2018-05-25T12:40:25.295Z,101272.23
2018-05-25T12:42:52.769Z,101275.59
2018-05-25T12:45:20.175Z,101273.28
2018-05-25T12:47:47.602Z,101277.75
2018-05-25T12:50:15.069Z,101275.71
2018-05-25T12:52:42.555Z,101276.88
2018-05-25T12:55:09.941Z,101276.69
2018-05-25T12:57:37.337Z,101273.63
2018-05-25T13:00:04.758Z,101278.58
2018-05-25T13:02:32.221Z,101278.45
2018-05-25T13:04:59.680Z,101280.77
2018-05-25T13:07:27.089Z,101274.47
2018-05-25T13:09:54.468Z,101275.15
2018-05-25T13:12:21.896Z,101284.02
2018-05-25T13:14:49.345Z,101276.17
2018-05-25T13:17:16.740Z,101276.50
2018-05-25T13:19:44.125Z,101280.70
2018-05-25T13:22:11.532Z,101275.17
2018-05-25T13:24:38.941Z,101273.32
2018-05-25T13:27:06.373Z,101276.98
2018-05-25T13:29:33.806Z,101273.82
2018-05-25T13:32:01.194Z,101277.86
2018-05-25T13:34:28.603Z,101269.30
2018-05-25T13:36:55.988Z,101270.67
2018-05-25T13:39:23.435Z,101267.63
2018-05-25T13:41:50.817Z,101265.61
2018-05-25T13:44:18.285Z,101262.69
2018-05-25T13:46:45.705Z,101261.08
2018-05-25T13:49:13.102Z,101257.27
2018-05-25T13:51:40.504Z,101254.88
2018-05-25T13:54:07.945Z,101253.23
2018-05-25T13:56:35.421Z,101254.73
2018-05-25T13:59:02.805Z,101248.59
2018-05-25T14:01:30.257Z,101244.16
2018-05-25T14:03:57.643Z,101246.47
2018-05-25T14:06:25.049Z,101249.27
2018-05-25T14:08:52.462Z,101244.58
2018-05-25T14:11:19.926Z,101240.97
2018-05-25T14:13:47.261Z,101252.74
2018-05-25T14:16:14.645Z,101254.40
2018-05-25T14:18:42.120Z,101245.70
2018-05-25T14:21:09.501Z,101255.75
2018-05-25T14:23:36.973Z,101261.14
2018-05-25T14:26:04.377Z,101260.17
2018-05-25T14:28:31.781Z,101263.83
2018-05-25T14:30:59.185Z,101254.21
2018-05-25T14:33:26.642Z,101247.20
2018-05-25T14:35:54.033Z,101254.58
2018-05-25T14:38:21.509Z,101261.83
2018-05-25T14:40:48.908Z,101264.24
2018-05-25T14:43:16.293Z,101268.81
2018-05-25T14:45:43.781Z,101263.79
2018-05-25T14:48:11.165Z,101263.97
2018-05-25T14:50:38.577Z,101261.56
2018-05-25T14:53:05.973Z,101259.07
2018-05-25T14:55:33.450Z,101260.39
2018-05-25T14:58:00.921Z,101255.25
2018-05-25T15:00:28.458Z,101254.64
2018-05-25T15:02:55.861Z,101252.20
2018-05-25T15:05:23.338Z,101253.65
2018-05-25T15:07:50.797Z,101256.67
2018-05-25T15:10:18.201Z,101257.02
2018-05-25T15:12:45.629Z,101260.47
2018-05-25T15:15:13.016Z,101254.84
2018-05-25T15:17:40.413Z,101252.45
2018-05-25T15:20:07.821Z,101245.19
2018-05-25T15:22:35.309Z,101244.38
2018-05-25T15:25:02.800Z,101247.88
2018-05-25T15:27:30.206Z,101244.94
2018-05-25T15:29:57.589Z,101235.52
2018-05-25T15:32:24.999Z,101230.11
2018-05-25T15:34:52.384Z,101228.80
2018-05-25T15:37:19.784Z,101226.47
2018-05-25T15:39:47.225Z,101221.44
2018-05-25T15:42:14.624Z,101218.15
2018-05-25T15:44:42.014Z,101212.81
2018-05-25T15:47:09.433Z,101214.61
2018-05-25T15:49:36.837Z,101211.97
2018-05-25T15:52:04.224Z,101213.67
2018-05-25T15:54:32.502Z,101211.86
2018-05-25T15:56:59.900Z,101220.59
2018-05-25T15:59:27.344Z,101222.50
2018-05-25T16:01:54.756Z,101212.53
2018-05-25T16:04:22.180Z,101220.19
2018-05-25T16:06:49.580Z,101214.36
2018-05-25T16:09:17.029Z,101216.67
2018-05-25T16:11:44.523Z,101222.45
2018-05-25T16:14:11.620Z,101223.38
2018-05-25T16:16:38.712Z,101212.10
2018-05-25T16:19:05.685Z,101202.34
2018-05-25T16:21:32.638Z,101206.18
2018-05-25T16:23:59.600Z,101205.88
2018-05-25T16:26:26.552Z,101208.12
2018-05-25T16:28:53.541Z,101206.14
2018-05-25T16:31:20.428Z,101203.31
2018-05-25T16:33:47.432Z,101203.13
2018-05-25T16:36:14.373Z,101201.97
2018-05-25T16:38:41.340Z,101195.22
2018-05-25T16:41:08.327Z,101200.81
2018-05-25T16:43:35.392Z,101196.03
2018-05-25T16:46:02.437Z,101187.73
2018-05-25T16:48:29.384Z,101197.92
2018-05-25T16:50:56.336Z,101189.33
2018-05-25T16:53:23.288Z,101193.91
2018-05-25T16:55:50.225Z,101185.72
2018-05-25T16:58:17.215Z,101186.44
2018-05-25T17:00:44.154Z,101184.92
2018-05-25T17:03:11.125Z,101181.08
2018-05-25T17:05:38.065Z,101179.82
2018-05-25T17:08:05.045Z,101183.81
2018-05-25T17:10:31.992Z,101186.44
2018-05-25T17:12:58.960Z,101190.41
2018-05-25T17:15:25.894Z,101192.64
2018-05-25T17:17:52.870Z,101182.63
2018-05-25T17:20:19.841Z,101186.62
2018-05-25T17:22:46.784Z,101188.55
2018-05-25T17:25:13.747Z,101194.46
2018-05-25T17:27:40.694Z,101194.13
2018-05-25T17:30:07.657Z,101194.73
2018-05-25T17:32:34.612Z,101201.35
2018-05-25T17:35:01.572Z,101197.60
2018-05-25T17:37:28.496Z,101195.54
2018-05-25T17:39:55.441Z,101208.16
2018-05-25T17:42:22.441Z,101207.84
2018-05-25T17:44:49.397Z,101208.77
2018-05-25T17:47:16.328Z,101205.88
2018-05-25T17:49:43.613Z,101211.37
2018-05-25T17:52:10.576Z,101211.02
2018-05-25T17:54:37.504Z,101211.77
2018-05-25T17:57:04.460Z,101211.93
2018-05-25T17:59:31.452Z,101212.47
2018-05-25T18:01:58.389Z,101214.50
2018-05-25T18:04:25.320Z,101220.55
2018-05-25T18:06:52.397Z,101217.40
2018-05-25T18:09:19.192Z,101219.10
2018-05-25T18:11:46.237Z,101216.40
2018-05-25T18:14:13.172Z,101225.98
2018-05-25T18:16:40.117Z,101228.41
2018-05-25T18:19:07.116Z,101227.67
2018-05-25T18:21:34.069Z,101229.45
2018-05-25T18:24:01.004Z,101232.50
2018-05-25T18:26:27.936Z,101228.54
2018-05-25T18:28:54.867Z,101231.87
2018-05-25T18:31:21.797Z,101232.21
2018-05-25T18:33:48.744Z,101230.75
2018-05-25T18:36:15.705Z,101231.05
2018-05-25T18:38:42.649Z,101239.81
2018-05-25T18:41:09.576Z,101233.95
2018-05-25T18:43:36.584Z,101232.69
2018-05-25T18:46:03.520Z,101240.92
2018-05-25T18:48:30.484Z,101232.91
2018-05-25T18:50:57.447Z,101235.92
2018-05-25T18:53:24.401Z,101236.44
2018-05-25T18:55:51.365Z,101239.58
2018-05-25T18:58:18.336Z,101238.73
2018-05-25T19:00:45.376Z,101246.41
2018-05-25T19:03:12.309Z,101243.49
2018-05-25T19:05:39.300Z,101248.78
2018-05-25T19:08:06.252Z,101246.91
2018-05-25T19:10:33.196Z,101250.56
2018-05-25T19:13:00.124Z,101249.61
2018-05-25T19:15:27.062Z,101259.57
2018-05-25T19:17:53.992Z,101257.89
2018-05-25T19:20:20.920Z,101260.39
2018-05-25T19:22:47.859Z,101261.83
2018-05-25T19:25:14.848Z,101263.43
2018-05-25T19:27:41.812Z,101267.80
2018-05-25T19:30:08.769Z,101273.89
2018-05-25T19:32:35.705Z,101272.30
2018-05-25T19:35:02.698Z,101273.87
2018-05-25T19:37:29.640Z,101275.81
2018-05-25T19:39:56.592Z,101276.30
2018-05-25T19:42:23.548Z,101281.68
2018-05-25T19:44:50.498Z,101286.45
2018-05-25T19:47:17.777Z,101285.38
2018-05-25T19:49:44.714Z,101292.84
2018-05-25T19:52:11.696Z,101295.61
2018-05-25T19:54:38.651Z,101293.81
2018-05-25T19:57:05.591Z,101298.86
2018-05-25T19:59:32.560Z,101296.69
2018-05-25T20:01:59.500Z,101304.84
2018-05-25T20:04:26.445Z,101307.26
2018-05-25T20:06:53.385Z,101305.98
2018-05-25T20:09:20.324Z,101312.41
2018-05-25T20:11:47.265Z,101308.00
2018-05-25T20:14:14.206Z,101309.94
2018-05-25T20:16:41.163Z,101306.41
2018-05-25T20:19:08.384Z,101305.54
2018-05-25T20:21:35.413Z,101304.48
2018-05-25T20:24:02.360Z,101306.72
2018-05-25T20:26:29.300Z,101307.94
2018-05-25T20:28:56.245Z,101301.91
2018-05-25T20:31:23.184Z,101307.62
2018-05-25T20:33:50.172Z,101304.70
2018-05-25T20:36:17.112Z,101307.27
2018-05-25T20:38:44.084Z,101307.36
2018-05-25T20:43:55.564Z,101307.20
2018-05-25T20:46:22.524Z,101304.91
2018-05-25T20:48:49.452Z,101304.46
2018-05-25T20:51:16.384Z,101302.05
2018-05-25T20:53:43.344Z,101300.99
2018-05-25T20:56:10.289Z,101311.02
2018-05-25T20:58:37.264Z,101305.92
2018-05-25T21:01:04.196Z,101300.95
2018-05-25T21:03:31.132Z,101301.55
2018-05-25T21:05:58.128Z,101302.83
2018-05-25T21:08:25.085Z,101307.98
2018-05-25T21:10:52.000Z,101307.53
2018-05-25T21:13:18.940Z,101306.98
2018-05-25T21:15:45.960Z,101308.70
2018-05-25T21:18:12.920Z,101319.11
2018-05-25T21:20:39.876Z,101311.08
2018-05-25T21:23:06.797Z,101312.29
2018-05-25T21:25:33.732Z,101311.87
2018-05-25T21:28:00.740Z,101311.67
2018-05-25T21:30:27.700Z,101318.17
2018-05-25T21:32:54.640Z,101316.18
2018-05-25T21:35:21.612Z,101320.82
2018-05-25T21:37:48.546Z,101320.97
2018-05-25T21:40:15.532Z,101324.66
2018-05-25T21:42:42.564Z,101323.88
2018-05-25T21:45:09.466Z,101323.09
2018-05-25T21:47:36.400Z,101325.41
2018-05-25T21:50:03.332Z,101329.20
2018-05-25T21:52:30.280Z,101329.75
2018-05-25T21:54:57.279Z,101332.81
2018-05-25T21:57:24.243Z,101336.80
2018-05-25T21:59:51.172Z,101338.46
2018-05-25T22:02:18.133Z,101340.86
2018-05-25T22:04:45.220Z,101342.99
2018-05-25T22:07:12.169Z,101344.64
2018-05-25T22:09:39.128Z,101343.39
2018-05-25T22:12:06.061Z,101352.89
2018-05-25T22:14:33.036Z,101358.55
2018-05-25T22:16:59.989Z,101356.26
2018-05-25T22:19:26.933Z,101358.63
2018-05-25T22:21:53.909Z,101363.89
2018-05-25T22:24:20.848Z,101368.02
2018-05-25T22:26:47.824Z,101361.44
2018-05-25T22:29:14.764Z,101363.20
2018-05-25T22:31:41.700Z,101373.03
2018-05-25T22:34:08.692Z,101369.03
2018-05-25T22:36:35.620Z,101373.31
2018-05-25T22:39:02.548Z,101375.13
2018-05-25T22:41:29.516Z,101381.08
2018-05-25T22:44:02.328Z,101386.06
2018-05-25T22:46:35.057Z,101389.14
2018-05-25T22:49:07.964Z,101388.47
2018-05-25T22:51:40.748Z,101391.38
2018-05-25T22:54:13.340Z,101389.84
2018-05-25T22:56:40.316Z,101387.09
2018-05-25T22:59:07.249Z,101392.48
2018-05-25T23:01:34.204Z,101390.16
2018-05-25T23:04:01.192Z,101395.92
2018-05-25T23:06:28.140Z,101394.50
2018-05-25T23:08:55.084Z,101390.41
2018-05-25T23:11:22.016Z,101394.53
2018-05-25T23:13:48.956Z,101390.50
2018-05-25T23:16:15.896Z,101392.02
2018-05-25T23:18:42.834Z,101397.33
2018-05-25T23:21:09.765Z,101389.95
2018-05-25T23:23:36.720Z,101396.45
2018-05-25T23:26:03.680Z,101387.07
2018-05-25T23:28:30.629Z,101388.02
2018-05-25T23:30:57.596Z,101380.69
2018-05-25T23:33:24.537Z,101378.95
2018-05-25T23:35:51.505Z,101381.80
2018-05-25T23:38:18.440Z,101378.11
2018-05-25T23:40:45.400Z,101378.35
2018-05-25T23:43:12.392Z,101381.97
2018-05-25T23:45:39.456Z,101374.67
2018-05-25T23:48:06.399Z,101371.75
2018-05-25T23:50:33.456Z,101379.80
2018-05-25T23:53:00.528Z,101375.02
2018-05-25T23:55:27.573Z,101375.25
2018-05-25T23:57:54.508Z,101370.05
